createdAt,value
2018-08-30T00:01:35.093Z,58.79
2018-08-30T00:04:03.781Z,58.99
2018-08-30T00:06:32.709Z,59.13
2018-08-30T00:09:02.156Z,58.90
2018-08-30T00:11:30.941Z,59.16
2018-08-30T00:13:59.502Z,58.70
2018-08-30T00:16:28.150Z,59.25
2018-08-30T00:18:56.650Z,59.49
2018-08-30T00:21:25.218Z,59.04
2018-08-30T00:23:53.745Z,59.64
2018-08-30T00:26:22.314Z,58.80
2018-08-30T00:28:50.922Z,58.63
2018-08-30T00:31:19.519Z,59.17
2018-08-30T00:33:48.031Z,59.33
2018-08-30T00:36:16.559Z,58.54
2018-08-30T00:38:45.189Z,59.76
2018-08-30T00:41:13.719Z,59.66
2018-08-30T00:43:42.359Z,58.99
2018-08-30T00:46:11.026Z,59.46
2018-08-30T00:48:39.592Z,59.40
2018-08-30T00:51:08.215Z,59.04
2018-08-30T00:53:36.775Z,59.30
2018-08-30T00:56:05.347Z,59.30
2018-08-30T00:58:34.050Z,58.81
2018-08-30T01:01:02.653Z,58.48
2018-08-30T01:03:31.267Z,59.37
2018-08-30T01:05:59.941Z,58.94
2018-08-30T01:08:28.497Z,58.33
2018-08-30T01:10:57.075Z,58.77
2018-08-30T01:13:25.668Z,59.05
2018-08-30T01:15:54.221Z,59.35
2018-08-30T01:18:22.753Z,58.48
2018-08-30T01:20:51.303Z,58.98
2018-08-30T01:23:19.930Z,59.01
2018-08-30T01:25:48.641Z,58.69
2018-08-30T01:28:17.223Z,58.70
2018-08-30T01:30:45.803Z,59.56
2018-08-30T01:33:14.479Z,59.24
2018-08-30T01:35:43.054Z,58.83
2018-08-30T01:38:11.700Z,58.73
2018-08-30T01:40:40.303Z,59.00
2018-08-30T01:43:09.093Z,59.39
2018-08-30T01:45:37.866Z,58.66
2018-08-30T01:48:06.512Z,58.48
2018-08-30T01:50:35.004Z,58.53
2018-08-30T01:53:03.560Z,58.58
2018-08-30T01:55:32.146Z,59.34
2018-08-30T01:58:00.705Z,59.49
2018-08-30T02:00:29.312Z,59.33
2018-08-30T02:02:57.989Z,58.95
2018-08-30T02:05:26.634Z,59.52
2018-08-30T02:07:55.403Z,58.60
2018-08-30T02:10:23.885Z,59.49
2018-08-30T02:12:52.439Z,58.89
2018-08-30T02:15:20.946Z,58.80
2018-08-30T02:17:49.496Z,58.83
2018-08-30T02:20:18.164Z,58.80
2018-08-30T02:22:46.889Z,58.51
2018-08-30T02:25:15.373Z,58.76
2018-08-30T02:27:44.057Z,59.54
2018-08-30T02:30:12.598Z,59.49
2018-08-30T02:32:41.307Z,59.61
2018-08-30T02:35:09.870Z,59.35
2018-08-30T02:37:38.475Z,59.08
2018-08-30T02:40:07.024Z,59.27
2018-08-30T02:42:35.533Z,58.94
2018-08-30T02:45:04.126Z,59.08
2018-08-30T02:47:32.672Z,59.08
2018-08-30T02:50:01.248Z,59.14
2018-08-30T02:52:29.805Z,59.58
2018-08-30T02:54:58.374Z,59.16
2018-08-30T02:57:26.965Z,58.71
2018-08-30T02:59:55.594Z,58.82
2018-08-30T03:02:24.179Z,58.71
2018-08-30T03:04:52.819Z,58.58
2018-08-30T03:07:21.389Z,58.69
2018-08-30T03:09:49.934Z,58.74
2018-08-30T03:12:18.611Z,58.58
2018-08-30T03:14:57.068Z,58.73
2018-08-30T03:17:25.694Z,58.86
2018-08-30T03:19:54.477Z,58.92
2018-08-30T03:22:23.268Z,59.11
2018-08-30T03:24:52.020Z,58.85
2018-08-30T03:27:20.608Z,59.24
2018-08-30T03:29:49.316Z,58.67
2018-08-30T03:32:18.034Z,60.09
2018-08-30T03:34:46.657Z,59.73
2018-08-30T03:37:15.322Z,59.06
2018-08-30T03:39:45.224Z,59.20
2018-08-30T03:42:13.871Z,59.15
2018-08-30T03:44:42.437Z,59.11
2018-08-30T03:47:11.243Z,59.28
2018-08-30T03:49:40.628Z,58.94
2018-08-30T03:52:09.666Z,58.89
2018-08-30T03:54:38.335Z,59.52
2018-08-30T03:57:06.992Z,59.15
2018-08-30T03:59:35.575Z,59.09
2018-08-30T04:02:04.869Z,59.07
2018-08-30T04:04:33.559Z,58.89
2018-08-30T04:07:02.199Z,59.68
2018-08-30T04:09:30.844Z,59.59
2018-08-30T04:11:59.519Z,59.20
2018-08-30T04:14:28.144Z,59.11
2018-08-30T04:16:56.851Z,59.21
2018-08-30T04:19:25.658Z,59.35
2018-08-30T04:21:54.349Z,59.24
2018-08-30T04:24:23.081Z,59.28
2018-08-30T04:26:51.760Z,59.08
2018-08-30T04:29:20.420Z,59.18
2018-08-30T04:31:49.363Z,59.45
2018-08-30T04:34:18.096Z,59.79
2018-08-30T04:36:46.754Z,59.91
2018-08-30T04:39:15.375Z,59.61
2018-08-30T04:41:43.970Z,59.25
2018-08-30T04:44:12.600Z,59.53
2018-08-30T04:46:41.385Z,59.66
2018-08-30T04:49:10.053Z,59.38
2018-08-30T04:51:38.987Z,59.29
2018-08-30T04:54:08.629Z,59.19
2018-08-30T04:56:37.424Z,59.18
2018-08-30T04:59:06.167Z,59.35
2018-08-30T05:01:34.867Z,59.70
2018-08-30T05:04:03.742Z,60.06
2018-08-30T05:06:32.832Z,59.73
2018-08-30T05:09:01.840Z,59.83
2018-08-30T05:11:30.601Z,59.42
2018-08-30T05:13:59.810Z,59.70
2018-08-30T05:16:29.578Z,59.33
2018-08-30T05:18:58.474Z,60.05
2018-08-30T05:21:27.433Z,59.73
2018-08-30T05:23:56.356Z,59.51
2018-08-30T05:26:25.375Z,58.93
2018-08-30T05:28:57.190Z,59.04
2018-08-30T05:31:25.894Z,59.19
2018-08-30T05:33:54.644Z,59.49
2018-08-30T05:36:23.405Z,59.92
2018-08-30T05:38:52.220Z,59.71
2018-08-30T05:41:20.940Z,59.95
2018-08-30T05:43:49.951Z,59.40
2018-08-30T05:46:18.763Z,59.43
2018-08-30T05:48:47.647Z,59.71
2018-08-30T05:51:16.505Z,59.96
2018-08-30T05:53:45.191Z,59.51
2018-08-30T05:56:13.988Z,59.49
2018-08-30T05:58:42.510Z,59.84
2018-08-30T06:01:11.222Z,59.83
2018-08-30T06:03:40.149Z,59.82
2018-08-30T06:06:09.064Z,59.89
2018-08-30T06:08:37.567Z,59.88
2018-08-30T06:11:06.278Z,59.42
2018-08-30T06:13:35.189Z,59.76
2018-08-30T06:16:11.629Z,59.49
2018-08-30T06:18:40.503Z,59.96
2018-08-30T06:21:09.412Z,59.97
2018-08-30T06:23:38.195Z,59.16
2018-08-30T06:26:19.257Z,59.32
2018-08-30T06:28:48.301Z,59.96
2018-08-30T06:31:17.505Z,58.97
2018-08-30T06:33:46.134Z,59.57
2018-08-30T06:36:15.037Z,59.34
2018-08-30T06:38:43.634Z,58.81
2018-08-30T06:41:12.357Z,59.45
2018-08-30T06:43:40.922Z,58.50
2018-08-30T06:46:09.641Z,58.53
2018-08-30T06:48:41.872Z,58.32
2018-08-30T06:51:18.714Z,58.10
2018-08-30T06:53:47.862Z,58.11
2018-08-30T06:56:23.997Z,57.82
2018-08-30T06:58:54.258Z,58.17
2018-08-30T07:44:33.333Z,62.33
2018-08-30T07:47:02.436Z,61.21
2018-08-30T07:49:30.975Z,60.01
2018-08-30T07:51:59.466Z,60.30
2018-08-30T07:54:28.078Z,59.10
2018-08-30T07:56:56.592Z,59.07
2018-08-30T07:59:25.044Z,58.38
2018-08-30T08:01:53.607Z,58.44
2018-08-30T08:04:22.115Z,56.08
2018-08-30T08:06:50.658Z,54.38
2018-08-30T08:09:19.154Z,53.09
2018-08-30T08:11:47.764Z,49.13
2018-08-30T08:14:16.451Z,47.76
2018-08-30T08:16:45.277Z,46.81
2018-08-30T08:19:13.947Z,46.66
2018-08-30T08:21:42.614Z,45.84
2018-08-30T08:24:11.256Z,46.81
2018-08-30T08:26:40.028Z,45.87
2018-08-30T08:29:08.567Z,46.04
2018-08-30T08:31:37.139Z,44.10
2018-08-30T08:34:05.679Z,42.96
2018-08-30T08:36:34.357Z,40.88
2018-08-30T08:39:03.250Z,39.77
2018-08-30T08:41:31.844Z,39.08
2018-08-30T08:44:00.315Z,38.38
2018-08-30T08:46:28.865Z,36.94
2018-08-30T08:48:57.340Z,36.48
2018-08-30T08:51:25.972Z,36.36
2018-08-30T08:53:54.581Z,36.86
2018-08-30T08:56:23.441Z,37.74
2018-08-30T08:58:52.550Z,38.00
2018-08-30T09:01:21.993Z,38.17
2018-08-30T09:03:50.766Z,37.58
2018-08-30T09:06:19.302Z,38.96
2018-08-30T09:08:47.872Z,38.33
2018-08-30T09:11:16.433Z,36.32
2018-08-30T09:13:45.141Z,35.61
2018-08-30T09:16:13.725Z,33.23
2018-08-30T09:18:42.348Z,32.33
2018-08-30T09:21:11.047Z,30.41
2018-08-30T09:23:39.626Z,29.84
2018-08-30T09:26:08.248Z,29.22
2018-08-30T09:28:36.851Z,28.52
2018-08-30T09:31:05.488Z,28.13
2018-08-30T09:33:34.854Z,28.56
2018-08-30T09:36:03.504Z,29.53
2018-08-30T09:38:32.196Z,30.18
2018-08-30T09:41:00.822Z,30.86
2018-08-30T09:43:29.360Z,31.73
2018-08-30T09:45:57.967Z,31.48
2018-08-30T09:48:26.518Z,31.55
2018-08-30T09:50:57.004Z,31.41
2018-08-30T09:53:25.590Z,30.76
2018-08-30T09:55:54.224Z,31.79
2018-08-30T09:58:22.812Z,32.85
2018-08-30T10:00:56.391Z,30.89
2018-08-30T10:03:24.959Z,29.33
2018-08-30T10:05:53.492Z,28.20
2018-08-30T10:08:22.113Z,28.91
2018-08-30T10:10:50.628Z,29.75
2018-08-30T10:13:19.220Z,28.56
2018-08-30T10:15:47.980Z,26.35
2018-08-30T10:18:16.657Z,23.88
2018-08-30T10:20:45.165Z,22.69
2018-08-30T10:23:13.626Z,22.07
2018-08-30T10:25:42.175Z,21.68
2018-08-30T10:28:10.734Z,20.37
2018-08-30T10:30:39.345Z,19.15
2018-08-30T10:33:07.938Z,18.45
2018-08-30T10:35:36.460Z,18.05
2018-08-30T10:38:05.101Z,18.65
2018-08-30T10:40:33.629Z,18.09
2018-08-30T10:43:02.298Z,18.09
2018-08-30T10:45:30.717Z,17.55
2018-08-30T10:47:59.168Z,16.35
2018-08-30T10:50:27.604Z,16.81
2018-08-30T10:52:56.074Z,16.55
2018-08-30T10:55:24.583Z,17.14
2018-08-30T10:57:53.349Z,18.14
2018-08-30T11:00:21.802Z,19.91
2018-08-30T11:02:50.301Z,20.57
2018-08-30T11:05:18.924Z,23.01
2018-08-30T11:07:48.030Z,23.50
2018-08-30T11:10:16.533Z,21.85
2018-08-30T11:12:45.068Z,20.17
2018-08-30T11:15:13.629Z,20.13
2018-08-30T11:17:42.188Z,18.60
2018-08-30T11:20:10.603Z,18.55
2018-08-30T11:22:39.092Z,17.05
2018-08-30T11:25:07.583Z,18.26
2018-08-30T11:27:36.095Z,19.23
2018-08-30T11:30:04.693Z,20.25
2018-08-30T11:32:33.192Z,20.85
2018-08-30T11:35:01.644Z,20.57
2018-08-30T11:37:30.137Z,18.97
2018-08-30T11:39:58.620Z,19.54
2018-08-30T11:42:27.124Z,19.81
2018-08-30T11:44:55.672Z,20.15
2018-08-30T11:47:24.210Z,20.52
2018-08-30T11:49:53.436Z,21.62
2018-08-30T11:52:21.957Z,22.27
2018-08-30T11:54:50.494Z,22.48
2018-08-30T11:57:19.304Z,22.12
2018-08-30T11:59:47.940Z,22.73
2018-08-30T12:02:16.488Z,23.28
2018-08-30T12:04:44.953Z,22.68
2018-08-30T12:07:13.473Z,22.80
2018-08-30T12:09:42.007Z,22.56
2018-08-30T12:12:10.468Z,24.11
2018-08-30T12:14:38.996Z,24.85
2018-08-30T12:17:07.527Z,24.66
2018-08-30T12:19:36.182Z,24.46
2018-08-30T12:22:04.648Z,24.84
2018-08-30T12:24:33.175Z,24.80
2018-08-30T12:27:01.795Z,25.71
2018-08-30T12:29:30.335Z,25.55
2018-08-30T12:31:58.878Z,25.53
2018-08-30T12:34:27.533Z,24.72
2018-08-30T12:36:56.041Z,24.91
2018-08-30T12:39:24.541Z,25.48
2018-08-30T12:41:53.218Z,24.18
2018-08-30T12:44:22.087Z,24.52
2018-08-30T12:46:50.560Z,25.26
2018-08-30T12:49:19.143Z,24.87
2018-08-30T12:51:47.832Z,24.68
2018-08-30T12:54:16.387Z,23.92
2018-08-30T12:56:44.905Z,25.31
2018-08-30T12:59:15.469Z,24.49
2018-08-30T13:01:44.072Z,24.44
2018-08-30T13:04:12.770Z,24.69
2018-08-30T13:06:46.445Z,24.70
2018-08-30T13:09:16.480Z,24.55
2018-08-30T13:11:45.155Z,24.37
2018-08-30T13:14:13.587Z,24.98
2018-08-30T13:16:42.511Z,25.57
2018-08-30T13:19:11.238Z,25.79
2018-08-30T13:21:39.757Z,26.67
2018-08-30T13:24:08.406Z,26.41
2018-08-30T13:26:36.843Z,26.69
2018-08-30T13:29:05.403Z,26.14
2018-08-30T13:31:34.182Z,27.80
2018-08-30T13:34:03.267Z,27.30
2018-08-30T13:36:31.606Z,27.30
2018-08-30T13:39:00.309Z,26.46
2018-08-30T13:41:29.136Z,27.02
2018-08-30T13:43:57.857Z,26.52
2018-08-30T13:46:26.439Z,25.72
2018-08-30T13:48:55.212Z,26.04
2018-08-30T13:51:23.629Z,26.85
2018-08-30T14:06:04.252Z,26.57
2018-08-30T14:08:32.862Z,26.83
2018-08-30T14:11:01.615Z,26.49
2018-08-30T14:13:31.175Z,26.65
2018-08-30T14:16:00.135Z,27.07
2018-08-30T14:18:28.740Z,26.36
2018-08-30T14:20:57.227Z,26.69
2018-08-30T14:23:25.864Z,25.96
2018-08-30T14:25:54.550Z,27.27
2018-08-30T14:28:23.028Z,27.04
2018-08-30T14:30:51.650Z,26.99
2018-08-30T14:33:20.451Z,27.33
2018-08-30T14:35:48.928Z,27.92
2018-08-30T14:38:17.467Z,26.99
2018-08-30T14:40:46.177Z,26.86
2018-08-30T14:43:14.499Z,27.24
2018-08-30T14:45:43.027Z,27.93
2018-08-30T14:48:11.533Z,27.69
2018-08-30T14:50:40.012Z,27.83
2018-08-30T14:53:08.706Z,27.75
2018-08-30T14:55:36.976Z,28.12
2018-08-30T14:58:05.577Z,27.49
2018-08-30T15:00:34.104Z,28.54
2018-08-30T15:03:02.660Z,28.14
2018-08-30T15:05:31.431Z,28.20
2018-08-30T15:07:59.771Z,28.23
2018-08-30T15:10:28.281Z,27.65
2018-08-30T15:12:56.864Z,28.22
2018-08-30T15:15:25.387Z,27.57
2018-08-30T15:17:53.900Z,27.81
2018-08-30T15:20:22.509Z,28.07
2018-08-30T15:22:50.982Z,27.45
2018-08-30T15:25:19.624Z,27.87
2018-08-30T15:27:48.243Z,28.62
2018-08-30T15:30:16.812Z,28.67
2018-08-30T15:32:45.319Z,28.37
2018-08-30T15:35:13.981Z,29.03
2018-08-30T15:37:42.489Z,28.00
2018-08-30T15:40:11.234Z,29.06
2018-08-30T15:42:40.249Z,28.67
2018-08-30T15:45:08.788Z,29.27
2018-08-30T15:47:37.354Z,28.73
2018-08-30T15:50:06.060Z,28.89
2018-08-30T15:52:34.619Z,28.74
2018-08-30T15:55:03.092Z,28.32
2018-08-30T15:57:31.751Z,29.10
2018-08-30T16:00:00.299Z,28.92
2018-08-30T16:02:28.858Z,28.44
2018-08-30T16:04:57.466Z,28.51
2018-08-30T16:07:26.092Z,29.21
2018-08-30T16:09:54.546Z,29.06
2018-08-30T16:12:23.151Z,29.79
2018-08-30T16:14:51.917Z,30.13
2018-08-30T16:17:21.275Z,30.02
2018-08-30T16:19:49.769Z,30.58
2018-08-30T16:22:18.281Z,30.73
2018-08-30T16:24:46.975Z,30.76
2018-08-30T16:27:15.569Z,30.84
2018-08-30T16:32:34.860Z,31.31
2018-08-30T16:35:04.272Z,30.98
2018-08-30T16:37:39.247Z,31.42
2018-08-30T16:40:07.989Z,31.62
2018-08-30T16:42:36.502Z,31.25
2018-08-30T16:45:04.995Z,32.12
2018-08-30T16:47:33.532Z,32.23
2018-08-30T16:50:02.206Z,32.17
2018-08-30T16:52:30.926Z,31.92
2018-08-30T16:54:59.618Z,31.99
2018-08-30T16:57:28.207Z,32.13
2018-08-30T16:59:56.732Z,31.86
2018-08-30T17:02:25.388Z,32.10
2018-08-30T17:04:53.922Z,32.70
2018-08-30T17:07:22.598Z,33.72
2018-08-30T17:09:51.152Z,33.43
2018-08-30T17:12:19.793Z,34.05
2018-08-30T17:14:48.378Z,34.14
2018-08-30T17:17:17.074Z,33.63
2018-08-30T17:19:45.606Z,34.29
2018-08-30T17:22:14.229Z,34.83
2018-08-30T17:24:42.908Z,34.58
2018-08-30T17:27:11.491Z,35.33
2018-08-30T17:29:40.238Z,35.61
2018-08-30T17:32:09.240Z,35.76
2018-08-30T17:34:37.845Z,35.03
2018-08-30T17:37:06.506Z,36.16
2018-08-30T17:39:34.894Z,35.72
2018-08-30T17:42:04.706Z,35.83
2018-08-30T17:44:33.220Z,36.62
2018-08-30T17:47:01.911Z,36.36
2018-08-30T17:49:30.764Z,35.76
2018-08-30T17:51:59.378Z,36.53
2018-08-30T17:54:27.965Z,36.23
2018-08-30T17:56:56.477Z,36.17
2018-08-30T17:59:25.201Z,36.41
2018-08-30T18:01:53.637Z,36.66
2018-08-30T18:04:22.168Z,36.77
2018-08-30T18:06:50.975Z,36.66
2018-08-30T18:09:19.474Z,37.13
2018-08-30T18:11:48.552Z,37.22
2018-08-30T18:14:17.051Z,37.77
2018-08-30T18:16:45.561Z,37.42
2018-08-30T18:19:14.291Z,37.15
2018-08-30T18:21:42.894Z,37.57
2018-08-30T18:24:11.554Z,38.18
2018-08-30T18:26:40.159Z,37.63
2018-08-30T18:29:08.731Z,38.18
2018-08-30T18:31:37.408Z,38.52
2018-08-30T18:34:06.202Z,38.82
2018-08-30T18:36:34.776Z,38.33
2018-08-30T18:39:03.363Z,38.65
2018-08-30T18:41:31.928Z,38.90
2018-08-30T18:44:00.445Z,39.31
2018-08-30T18:46:30.087Z,39.79
2018-08-30T18:48:58.589Z,39.89
2018-08-30T18:51:27.038Z,39.68
2018-08-30T18:53:55.589Z,40.01
2018-08-30T18:56:24.182Z,40.64
2018-08-30T18:58:52.699Z,40.02
2018-08-30T19:01:21.211Z,40.22
2018-08-30T19:03:49.799Z,40.54
2018-08-30T19:06:18.329Z,41.48
2018-08-30T19:08:46.909Z,40.70
2018-08-30T19:11:15.376Z,41.24
2018-08-30T19:13:44.052Z,40.63
2018-08-30T19:16:17.789Z,40.66
2018-08-30T19:18:51.555Z,40.86
2018-08-30T19:21:20.022Z,41.19
2018-08-30T19:23:48.596Z,41.76
2018-08-30T19:26:17.176Z,41.95
2018-08-30T19:28:45.693Z,42.46
2018-08-30T19:31:14.260Z,42.29
2018-08-30T19:33:42.764Z,42.76
2018-08-30T19:36:16.505Z,42.33
2018-08-30T19:38:45.147Z,43.06
2018-08-30T19:41:18.732Z,43.07
2018-08-30T19:43:48.083Z,43.07
2018-08-30T19:46:16.655Z,42.86
2018-08-30T19:48:45.131Z,43.49
2018-08-30T19:51:13.583Z,43.52
2018-08-30T19:53:42.485Z,43.39
2018-08-30T19:56:11.990Z,43.61
2018-08-30T19:58:40.613Z,44.17
2018-08-30T20:01:09.180Z,44.32
2018-08-30T20:03:37.660Z,44.52
2018-08-30T20:06:06.604Z,44.42
2018-08-30T20:08:35.144Z,44.85
2018-08-30T20:11:03.991Z,45.47
2018-08-30T20:13:32.607Z,45.43
2018-08-30T20:16:00.998Z,45.63
2018-08-30T20:18:29.472Z,46.06
2018-08-30T20:20:57.972Z,46.28
2018-08-30T20:23:26.460Z,46.32
2018-08-30T20:25:54.953Z,45.27
2018-08-30T20:28:24.161Z,45.91
2018-08-30T20:30:52.619Z,46.21
2018-08-30T20:33:21.105Z,45.96
2018-08-30T20:35:49.635Z,47.09
2018-08-30T20:38:18.168Z,46.70
2018-08-30T20:40:46.677Z,46.67
2018-08-30T20:43:15.195Z,46.90
2018-08-30T20:45:43.687Z,47.17
2018-08-30T20:48:12.860Z,47.01
2018-08-30T20:50:41.356Z,47.10
2018-08-30T20:53:09.789Z,47.95
2018-08-30T20:55:38.344Z,48.22
2018-08-30T20:58:07.027Z,47.63
2018-08-30T21:00:35.598Z,47.89
2018-08-30T21:03:04.386Z,47.70
2018-08-30T21:05:33.053Z,48.20
2018-08-30T21:08:01.616Z,48.95
2018-08-30T21:10:30.308Z,48.65
2018-08-30T21:12:58.865Z,48.46
2018-08-30T21:15:27.479Z,48.56
2018-08-30T21:17:55.965Z,48.59
2018-08-30T21:20:24.503Z,48.66
2018-08-30T21:22:52.980Z,48.43
2018-08-30T21:25:21.511Z,48.81
2018-08-30T21:27:50.083Z,48.65
2018-08-30T21:30:18.607Z,49.08
2018-08-30T21:32:47.147Z,49.05
2018-08-30T21:35:15.732Z,48.93
2018-08-30T21:37:44.204Z,49.84
2018-08-30T21:40:13.849Z,49.49
2018-08-30T21:42:42.466Z,49.35
2018-08-30T21:45:10.983Z,48.99
2018-08-30T21:47:39.516Z,49.27
2018-08-30T21:50:08.056Z,49.61
2018-08-30T21:52:36.511Z,49.66
2018-08-30T21:55:05.027Z,49.52
2018-08-30T21:57:33.604Z,50.25
2018-08-30T22:00:02.083Z,49.75
2018-08-30T22:02:30.606Z,50.04
2018-08-30T22:04:59.076Z,50.11
2018-08-30T22:07:27.495Z,50.07
2018-08-30T22:09:56.089Z,50.20
2018-08-30T22:12:24.577Z,50.04
2018-08-30T22:14:53.083Z,50.51
2018-08-30T22:17:21.581Z,51.02
2018-08-30T22:19:50.041Z,50.84
2018-08-30T22:22:18.511Z,50.96
2018-08-30T22:24:47.025Z,51.53
2018-08-30T22:27:15.452Z,51.04
2018-08-30T22:29:44.083Z,51.19
2018-08-30T22:32:12.570Z,50.52
2018-08-30T22:34:41.202Z,50.47
2018-08-30T22:37:09.678Z,50.95
2018-08-30T22:39:38.300Z,51.20
2018-08-30T22:42:06.850Z,51.38
2018-08-30T22:44:35.439Z,51.21
2018-08-30T22:47:03.887Z,51.13
2018-08-30T22:49:32.404Z,51.26
2018-08-30T22:52:00.884Z,51.38
2018-08-30T22:54:29.408Z,51.59
2018-08-30T22:56:57.949Z,51.45
2018-08-30T22:59:26.551Z,51.73
2018-08-30T23:01:55.117Z,51.53
2018-08-30T23:04:23.599Z,51.54
2018-08-30T23:06:52.089Z,52.08
2018-08-30T23:09:20.536Z,51.49
2018-08-30T23:11:49.020Z,52.24
2018-08-30T23:14:17.573Z,51.57
2018-08-30T23:16:46.021Z,51.81
2018-08-30T23:19:14.465Z,51.74
2018-08-30T23:21:43.012Z,51.92
2018-08-30T23:24:11.459Z,52.21
2018-08-30T23:26:40.099Z,52.38
2018-08-30T23:29:08.528Z,52.44
2018-08-30T23:31:37.109Z,52.89
2018-08-30T23:34:05.699Z,52.34
2018-08-30T23:36:34.231Z,52.41
2018-08-30T23:39:02.760Z,52.58
2018-08-30T23:41:31.236Z,52.59
2018-08-30T23:43:59.700Z,52.43
2018-08-30T23:46:28.124Z,52.84
2018-08-30T23:48:56.543Z,53.47
2018-08-30T23:51:25.084Z,52.75
2018-08-30T23:53:53.578Z,52.95
2018-08-30T23:56:22.080Z,53.56
2018-08-30T23:59:01.759Z,53.88
